createdAt,value
2015-12-02T00:00:00.212Z,99.9
2015-12-02T00:01:00.152Z,99.9
2015-12-02T00:02:00.109Z,99.9
2015-12-02T00:03:00.049Z,99.9
2015-12-02T00:03:59.255Z,99.9
2015-12-02T00:04:59.945Z,99.9
2015-12-02T00:05:59.885Z,99.9
2015-12-02T00:06:59.838Z,99.9
2015-12-02T00:07:59.778Z,99.9
2015-12-02T00:08:59.735Z,99.9
2015-12-02T00:09:59.674Z,99.9
2015-12-02T00:10:59.630Z,99.9
2015-12-02T00:11:59.572Z,99.9
2015-12-02T00:12:59.527Z,99.9
2015-12-02T00:13:59.452Z,99.9
2015-12-02T00:14:59.408Z,99.9
2015-12-02T00:15:59.426Z,99.9
2015-12-02T00:16:59.288Z,99.9
2015-12-02T00:17:59.244Z,99.9
2015-12-02T00:18:59.184Z,99.9
2015-12-02T00:19:59.140Z,99.9
2015-12-02T00:20:59.080Z,99.9
2015-12-02T00:21:59.036Z,99.9
2015-12-02T00:22:58.977Z,99.9
2015-12-02T00:23:58.917Z,99.9
2015-12-02T00:24:58.874Z,99.9
2015-12-02T00:25:58.814Z,99.9
2015-12-02T00:26:58.767Z,99.9
2015-12-02T00:27:58.708Z,99.9
2015-12-02T00:28:58.663Z,99.9
2015-12-02T00:29:58.621Z,99.9
2015-12-02T00:30:58.546Z,99.9
2015-12-02T00:31:58.502Z,99.9
2015-12-02T00:32:58.439Z,99.9
2015-12-02T00:33:58.380Z,99.9
2015-12-02T00:34:58.336Z,99.9
2015-12-02T00:35:58.276Z,99.9
2015-12-02T00:36:58.232Z,99.9
2015-12-02T00:37:58.407Z,99.9
2015-12-02T00:38:58.378Z,99.9
2015-12-02T00:39:58.069Z,99.9
2015-12-02T00:40:58.026Z,99.9
2015-12-02T00:41:57.966Z,99.9
2015-12-02T00:42:57.906Z,99.9
2015-12-02T00:43:57.862Z,99.9
2015-12-02T00:44:57.831Z,99.9
2015-12-02T00:45:57.770Z,99.9
2015-12-02T00:46:57.695Z,99.9
2015-12-02T00:47:57.653Z,99.9
2015-12-02T00:48:57.608Z,99.9
2015-12-02T00:49:57.549Z,99.9
2015-12-02T00:50:57.490Z,99.9
2015-12-02T00:51:57.447Z,99.9
2015-12-02T00:52:57.386Z,99.9
2015-12-02T00:53:57.342Z,99.9
2015-12-02T00:54:57.264Z,99.9
2015-12-02T00:55:57.219Z,99.9
2015-12-02T00:56:57.175Z,99.9
2015-12-02T00:57:57.119Z,99.9
2015-12-02T00:58:57.059Z,99.9
2015-12-02T00:59:57.014Z,99.9
2015-12-02T01:00:56.955Z,99.9
2015-12-02T01:01:56.892Z,99.9
2015-12-02T01:02:56.848Z,99.9
2015-12-02T01:03:56.788Z,99.9
2015-12-02T01:04:56.729Z,99.9
2015-12-02T01:05:56.686Z,99.9
2015-12-02T01:06:56.485Z,99.9
2015-12-02T01:07:56.582Z,99.9
2015-12-02T01:08:56.523Z,99.9
2015-12-02T01:09:56.479Z,99.9
2015-12-02T01:10:56.435Z,99.9
2015-12-02T01:11:56.373Z,99.9
2015-12-02T01:12:56.313Z,99.9
2015-12-02T01:13:56.253Z,99.9
2015-12-02T01:14:56.212Z,99.9
2015-12-02T01:15:56.167Z,99.9
2015-12-02T01:16:56.107Z,99.9
2015-12-02T01:17:56.063Z,99.9
2015-12-02T01:18:56.001Z,99.9
2015-12-02T01:19:55.941Z,99.9
2015-12-02T01:20:55.897Z,99.9
2015-12-02T01:21:55.838Z,99.9
2015-12-02T01:22:55.794Z,99.9
2015-12-02T01:23:55.736Z,99.9
2015-12-02T01:24:55.691Z,99.9
2015-12-02T01:25:55.631Z,99.9
2015-12-02T01:26:55.587Z,99.9
2015-12-02T01:27:55.525Z,99.9
2015-12-02T01:28:55.497Z,99.9
2015-12-02T01:29:55.421Z,99.9
2015-12-02T01:30:55.391Z,99.9
2015-12-02T01:31:55.319Z,99.9
2015-12-02T01:32:55.275Z,99.9
2015-12-02T01:33:55.449Z,99.9
2015-12-02T01:34:55.155Z,99.9
2015-12-02T01:35:55.096Z,99.9
2015-12-02T01:36:55.049Z,99.9
2015-12-02T01:37:54.988Z,99.9
2015-12-02T01:38:54.960Z,99.9
2015-12-02T01:39:54.886Z,99.9
2015-12-02T01:40:54.841Z,99.9
2015-12-02T01:41:54.783Z,99.9
2015-12-02T01:42:54.738Z,99.9
2015-12-02T01:43:54.679Z,99.9
2015-12-02T01:44:54.620Z,99.9
2015-12-02T01:45:54.576Z,99.9
2015-12-02T01:46:54.513Z,99.9
2015-12-02T01:47:54.453Z,99.9
2015-12-02T01:48:54.409Z,99.9
2015-12-02T01:49:54.365Z,99.9
2015-12-02T01:50:54.308Z,99.9
2015-12-02T01:51:54.264Z,99.9
2015-12-02T01:52:54.203Z,99.9
2015-12-02T01:53:54.144Z,99.9
2015-12-02T01:54:54.097Z,99.9
2015-12-02T01:55:54.037Z,99.9
2015-12-02T01:56:53.996Z,99.9
2015-12-02T01:57:53.935Z,99.9
2015-12-02T01:58:53.892Z,99.9
2015-12-02T01:59:53.847Z,99.9
2015-12-02T02:00:53.769Z,99.9
2015-12-02T02:01:53.741Z,99.9
2015-12-02T02:02:53.680Z,99.9
2015-12-02T02:03:53.623Z,99.9
2015-12-02T02:04:53.579Z,99.9
2015-12-02T02:05:53.535Z,99.9
2015-12-02T02:06:53.457Z,99.9
2015-12-02T02:07:53.413Z,99.9
2015-12-02T02:08:53.384Z,99.9
2015-12-02T02:09:53.309Z,99.9
2015-12-02T02:10:53.250Z,99.9
2015-12-02T02:11:53.208Z,99.9
2015-12-02T02:12:53.164Z,99.9
2015-12-02T02:13:53.104Z,99.9
2015-12-02T02:14:53.042Z,99.9
2015-12-02T02:15:52.982Z,99.9
2015-12-02T02:16:52.938Z,99.9
2015-12-02T02:17:52.878Z,99.9
2015-12-02T02:18:52.834Z,99.9
2015-12-02T02:19:52.776Z,99.9
2015-12-02T02:20:52.731Z,99.9
2015-12-02T02:21:52.673Z,99.9
2015-12-02T02:22:52.628Z,99.9
2015-12-02T02:23:52.566Z,99.9
2015-12-02T02:24:52.537Z,99.9
2015-12-02T02:25:52.461Z,99.9
2015-12-02T02:26:52.404Z,99.9
2015-12-02T02:27:52.344Z,99.9
2015-12-02T02:28:52.300Z,99.9
2015-12-02T02:29:52.241Z,99.9
2015-12-02T02:30:52.196Z,99.9
2015-12-02T02:31:52.371Z,99.9
2015-12-02T02:32:52.074Z,99.9
2015-12-02T02:33:52.280Z,99.9
2015-12-02T02:34:51.985Z,99.9
2015-12-02T02:35:51.928Z,99.9
2015-12-02T02:36:51.868Z,99.9
2015-12-02T02:37:51.824Z,99.9
2015-12-02T02:38:51.812Z,99.9
2015-12-02T02:39:51.718Z,99.9
2015-12-02T02:40:51.674Z,99.9
2015-12-02T02:41:51.615Z,99.9
2015-12-02T02:42:51.572Z,99.9
2015-12-02T02:43:51.512Z,99.9
2015-12-02T02:44:51.468Z,99.9
2015-12-02T02:45:51.409Z,99.9
2015-12-02T02:46:50.628Z,99.9
2015-12-02T02:47:51.301Z,99.9
2015-12-02T02:48:51.258Z,99.9
2015-12-02T02:49:51.182Z,99.9
2015-12-02T02:50:51.172Z,99.9
2015-12-02T02:51:51.080Z,99.9
2015-12-02T02:52:51.021Z,99.9
2015-12-02T02:53:50.961Z,99.9
2015-12-02T02:54:50.917Z,99.9
2015-12-02T02:55:50.870Z,99.9
2015-12-02T02:56:50.810Z,99.9
2015-12-02T02:57:50.752Z,99.9
2015-12-02T02:58:50.725Z,99.9
2015-12-02T02:59:50.649Z,99.9
2015-12-02T03:00:50.605Z,99.9
2015-12-02T03:01:50.545Z,99.9
2015-12-02T03:02:50.498Z,99.9
2015-12-02T03:03:50.438Z,99.9
2015-12-02T03:04:50.379Z,99.9
2015-12-02T03:05:50.336Z,99.9
2015-12-02T03:06:50.277Z,99.9
2015-12-02T03:07:50.233Z,99.9
2015-12-02T03:08:50.174Z,99.9
2015-12-02T03:09:50.348Z,99.9
2015-12-02T03:10:50.067Z,99.9
2015-12-02T03:11:50.007Z,99.9
2015-12-02T03:12:49.963Z,99.9
2015-12-02T03:13:49.920Z,99.9
2015-12-02T03:14:49.845Z,99.9
2015-12-02T03:15:49.802Z,99.9
2015-12-02T03:16:49.742Z,99.9
2015-12-02T03:17:49.682Z,99.9
2015-12-02T03:18:49.638Z,99.9
2015-12-02T03:19:49.592Z,99.9
2015-12-02T03:20:48.797Z,99.9
2015-12-02T03:21:49.489Z,99.9
2015-12-02T03:22:49.430Z,99.9
2015-12-02T03:23:49.369Z,99.9
2015-12-02T03:24:49.325Z,99.9
2015-12-02T03:25:49.266Z,99.9
2015-12-02T03:26:49.203Z,99.9
2015-12-02T03:27:49.175Z,99.9
2015-12-02T03:28:49.099Z,99.9
2015-12-02T03:29:49.041Z,99.9
2015-12-02T03:30:48.981Z,99.9
2015-12-02T03:31:48.938Z,99.9
2015-12-02T03:32:48.879Z,99.9
2015-12-02T03:33:48.834Z,99.9
2015-12-02T03:34:48.790Z,99.9
2015-12-02T03:35:48.712Z,99.9
2015-12-02T03:36:48.668Z,99.9
2015-12-02T03:37:48.608Z,99.9
2015-12-02T03:38:48.565Z,99.9
2015-12-02T03:39:48.522Z,99.9
2015-12-02T03:40:48.445Z,99.9
2015-12-02T03:41:48.403Z,99.9
2015-12-02T03:42:48.374Z,99.9
2015-12-02T03:43:48.299Z,99.9
2015-12-02T03:44:48.254Z,99.9
2015-12-02T03:45:48.223Z,99.9
2015-12-02T03:46:48.132Z,99.9
2015-12-02T03:47:48.090Z,99.9
2015-12-02T03:48:48.031Z,99.9
2015-12-02T03:49:47.986Z,99.9
2015-12-02T03:50:47.911Z,99.9
2015-12-02T03:51:47.866Z,99.9
2015-12-02T03:52:47.822Z,99.9
2015-12-02T03:53:47.763Z,99.9
2015-12-02T03:54:47.703Z,99.9
2015-12-02T03:55:47.659Z,99.9
2015-12-02T03:56:47.615Z,99.9
2015-12-02T03:57:47.556Z,99.9
2015-12-02T03:58:47.495Z,99.9
2015-12-02T03:59:47.449Z,99.9
2015-12-02T04:00:47.389Z,99.9
2015-12-02T04:01:47.344Z,99.9
2015-12-02T04:02:47.316Z,99.9
2015-12-02T04:03:47.224Z,99.9
2015-12-02T04:04:47.180Z,99.9
2015-12-02T04:05:47.137Z,99.9
2015-12-02T04:06:47.093Z,99.9
2015-12-02T04:07:47.016Z,99.9
2015-12-02T04:08:46.957Z,99.9
2015-12-02T04:09:46.929Z,99.9
2015-12-02T04:10:46.838Z,99.9
2015-12-02T04:11:46.793Z,99.9
2015-12-02T04:12:46.749Z,99.9
2015-12-02T04:13:46.690Z,99.9
2015-12-02T04:14:46.646Z,99.9
2015-12-02T04:15:46.805Z,99.9
2015-12-02T04:16:46.527Z,99.9
2015-12-02T04:17:46.483Z,99.9
2015-12-02T04:18:46.423Z,99.9
2015-12-02T04:19:46.380Z,99.9
2015-12-02T04:20:46.317Z,99.9
2015-12-02T04:21:46.273Z,99.9
2015-12-02T04:22:46.244Z,99.9
2015-12-02T04:23:46.169Z,99.9
2015-12-02T04:24:46.110Z,99.9
2015-12-02T04:25:46.066Z,99.9
2015-12-02T04:26:46.210Z,99.9
2015-12-02T04:27:45.946Z,99.9
2015-12-02T04:28:45.919Z,99.9
2015-12-02T04:29:45.844Z,99.9
2015-12-02T04:30:45.799Z,99.9
2015-12-02T04:31:45.771Z,99.9
2015-12-02T04:32:45.677Z,99.9
2015-12-02T04:33:45.633Z,99.9
2015-12-02T04:34:45.588Z,99.9
2015-12-02T04:35:45.563Z,99.9
2015-12-02T04:36:45.488Z,99.9
2015-12-02T04:37:45.428Z,99.9
2015-12-02T04:38:45.368Z,99.9
2015-12-02T04:39:45.323Z,99.9
2015-12-02T04:40:45.265Z,99.9
2015-12-02T04:41:45.251Z,99.9
2015-12-02T04:42:44.426Z,99.9
2015-12-02T04:43:45.115Z,99.9
2015-12-02T04:44:45.072Z,99.9
2015-12-02T04:45:45.009Z,99.9
2015-12-02T04:46:44.934Z,99.9
2015-12-02T04:47:44.890Z,99.9
2015-12-02T04:48:44.846Z,99.9
2015-12-02T04:49:44.787Z,99.9
2015-12-02T04:50:44.743Z,99.9
2015-12-02T04:51:44.682Z,99.9
2015-12-02T04:52:44.637Z,99.9
2015-12-02T04:53:44.579Z,99.9
2015-12-02T04:54:44.518Z,99.9
2015-12-02T04:55:44.476Z,99.9
2015-12-02T04:56:44.415Z,99.9
2015-12-02T04:57:44.559Z,99.9
2015-12-02T04:58:44.312Z,99.9
2015-12-02T04:59:44.283Z,99.9
2015-12-02T05:00:44.208Z,99.9
2015-12-02T05:01:44.164Z,99.9
2015-12-02T05:02:44.105Z,99.9
2015-12-02T05:03:44.042Z,99.9
2015-12-02T05:04:43.998Z,99.9
2015-12-02T05:05:43.938Z,99.9
2015-12-02T05:06:43.895Z,99.9
2015-12-02T05:07:43.852Z,99.9
2015-12-02T05:08:43.776Z,99.9
2015-12-02T05:09:43.732Z,99.9
2015-12-02T05:10:43.688Z,99.9
2015-12-02T05:11:43.659Z,99.9
2015-12-02T05:12:43.565Z,99.9
2015-12-02T05:13:43.522Z,99.9
2015-12-02T05:14:43.462Z,99.9
2015-12-02T05:15:43.437Z,99.9
2015-12-02T05:16:43.361Z,99.9
2015-12-02T05:17:43.317Z,99.9
2015-12-02T05:18:43.257Z,99.9
2015-12-02T05:19:43.210Z,99.9
2015-12-02T05:20:43.166Z,99.9
2015-12-02T05:21:43.090Z,99.9
2015-12-02T05:22:43.047Z,99.9
2015-12-02T05:23:42.987Z,99.9
2015-12-02T05:24:42.928Z,99.9
2015-12-02T05:25:42.884Z,99.9
2015-12-02T05:26:42.824Z,99.9
2015-12-02T05:27:42.779Z,99.9
2015-12-02T05:28:42.720Z,99.9
2015-12-02T05:29:42.676Z,99.9
2015-12-02T05:30:42.616Z,99.9
2015-12-02T05:31:42.572Z,99.9
2015-12-02T05:32:42.513Z,99.9
2015-12-02T05:33:42.454Z,99.9
2015-12-02T05:34:42.410Z,99.9
2015-12-02T05:35:42.366Z,99.9
2015-12-02T05:36:42.305Z,99.9
2015-12-02T05:37:42.243Z,99.9
2015-12-02T05:38:42.198Z,99.9
2015-12-02T05:39:42.138Z,99.9
2015-12-02T05:40:42.095Z,99.9
2015-12-02T05:41:42.037Z,99.9
2015-12-02T05:42:42.212Z,99.9
2015-12-02T05:43:41.949Z,99.9
2015-12-02T05:44:41.874Z,99.9
2015-12-02T05:45:41.845Z,99.9
2015-12-02T05:46:41.782Z,99.9
2015-12-02T05:47:41.723Z,99.9
2015-12-02T05:48:41.663Z,99.9
2015-12-02T05:49:41.620Z,99.9
2015-12-02T05:50:41.559Z,99.9
2015-12-02T05:51:41.515Z,99.9
2015-12-02T05:52:41.456Z,99.9
2015-12-02T05:53:41.412Z,99.9
2015-12-02T05:54:41.367Z,99.9
2015-12-02T05:55:41.309Z,99.9
2015-12-02T05:56:41.266Z,99.9
2015-12-02T05:57:41.206Z,99.9
2015-12-02T05:58:41.161Z,99.9
2015-12-02T05:59:41.099Z,99.9
2015-12-02T06:00:41.039Z,99.9
2015-12-02T06:01:40.995Z,99.9
2015-12-02T06:02:40.937Z,99.9
2015-12-02T06:03:40.892Z,99.9
2015-12-02T06:04:40.832Z,99.9
2015-12-02T06:05:40.773Z,99.9
2015-12-02T06:06:40.729Z,99.9
2015-12-02T06:07:40.670Z,99.9
2015-12-02T06:08:40.625Z,99.9
2015-12-02T06:09:40.565Z,99.9
2015-12-02T06:10:40.521Z,99.9
2015-12-02T06:11:40.462Z,99.9
2015-12-02T06:12:40.418Z,99.9
2015-12-02T06:13:40.357Z,99.9
2015-12-02T06:14:40.298Z,99.9
2015-12-02T06:15:40.254Z,99.9
2015-12-02T06:16:40.194Z,99.9
2015-12-02T06:17:40.165Z,99.9
2015-12-02T06:18:40.121Z,99.9
2015-12-02T06:19:40.043Z,99.9
2015-12-02T06:20:39.999Z,99.9
2015-12-02T06:21:39.251Z,99.9
2015-12-02T06:22:39.879Z,99.9
2015-12-02T06:23:39.836Z,99.9
2015-12-02T06:24:39.806Z,99.9
2015-12-02T06:25:39.763Z,99.9
2015-12-02T06:26:39.689Z,99.9
2015-12-02T06:27:39.630Z,99.9
2015-12-02T06:28:39.570Z,99.9
2015-12-02T06:29:39.526Z,99.9
2015-12-02T06:30:39.480Z,99.9
2015-12-02T06:31:39.419Z,99.9
2015-12-02T06:32:39.360Z,99.9
2015-12-02T06:33:39.318Z,99.9
2015-12-02T06:34:39.257Z,99.9
2015-12-02T06:35:39.214Z,99.9
2015-12-02T06:36:39.170Z,99.9
2015-12-02T06:37:38.358Z,99.9
2015-12-02T06:38:39.047Z,99.9
2015-12-02T06:39:39.003Z,99.9
2015-12-02T06:40:38.959Z,99.9
2015-12-02T06:41:38.884Z,99.9
2015-12-02T06:42:38.888Z,99.9
2015-12-02T06:43:39.016Z,99.9
2015-12-02T06:44:38.722Z,99.9
2015-12-02T06:45:38.679Z,99.9
2015-12-02T06:46:38.618Z,99.9
2015-12-02T06:47:38.573Z,99.9
2015-12-02T06:48:38.511Z,99.9
2015-12-02T06:49:38.467Z,99.9
2015-12-02T06:50:38.408Z,99.9
2015-12-02T06:51:38.366Z,99.9
2015-12-02T06:52:38.572Z,99.9
2015-12-02T06:53:38.247Z,99.9
2015-12-02T06:54:38.203Z,99.9
2015-12-02T06:55:38.142Z,99.9
2015-12-02T06:56:38.098Z,99.9
2015-12-02T06:57:38.038Z,99.9
2015-12-02T06:58:37.991Z,99.9
2015-12-02T06:59:37.932Z,99.9
2015-12-02T07:00:37.887Z,99.6
2015-12-02T07:01:37.827Z,99.8
2015-12-02T07:02:37.784Z,99.9
2015-12-02T07:03:37.772Z,99.9
2015-12-02T07:04:37.697Z,99.9
2015-12-02T07:05:37.667Z,99.9
2015-12-02T07:06:37.577Z,99.5
2015-12-02T07:07:37.517Z,99.5
2015-12-02T07:08:37.457Z,99.6
2015-12-02T07:09:37.413Z,99.7
2015-12-02T07:10:37.353Z,99.8
2015-12-02T07:11:37.308Z,99.5
2015-12-02T07:12:37.249Z,99.4
2015-12-02T07:13:37.205Z,99.3
2015-12-02T07:14:37.146Z,99.2
2015-12-02T07:15:37.103Z,99
2015-12-02T07:16:37.042Z,99.2
2015-12-02T07:17:36.983Z,99.2
2015-12-02T07:18:36.920Z,99.1
2015-12-02T07:19:36.875Z,99.3
2015-12-02T07:20:36.831Z,99.4
2015-12-02T07:21:36.788Z,99.1
2015-12-02T07:22:36.713Z,98.9
2015-12-02T07:23:36.669Z,99
2015-12-02T07:24:36.610Z,99
2015-12-02T07:25:36.786Z,99.1
2015-12-02T07:26:36.507Z,99
2015-12-02T07:27:36.463Z,99
2015-12-02T07:28:36.403Z,99.2
2015-12-02T07:29:36.341Z,99.2
2015-12-02T07:30:36.343Z,99.5
2015-12-02T07:31:36.223Z,99.5
2015-12-02T07:32:36.428Z,99.8
2015-12-02T07:33:36.134Z,99.9
2015-12-02T07:34:36.074Z,99.9
2015-12-02T07:35:36.031Z,99.9
2015-12-02T07:36:35.970Z,99.9
2015-12-02T07:37:35.925Z,99.9
2015-12-02T07:38:35.882Z,99.9
2015-12-02T07:39:35.806Z,99.9
2015-12-02T07:40:35.762Z,99.9
2015-12-02T07:41:35.703Z,99.9
2015-12-02T07:42:35.659Z,99.9
2015-12-02T07:43:35.598Z,99.5
2015-12-02T07:44:35.555Z,99.5
2015-12-02T07:45:35.495Z,99.6
2015-12-02T07:46:35.435Z,99.5
2015-12-02T07:47:35.391Z,99.5
2015-12-02T07:48:35.331Z,99.5
2015-12-02T07:49:35.286Z,99.7
2015-12-02T07:50:35.227Z,99.5
2015-12-02T07:51:35.183Z,99.5
2015-12-02T07:52:35.139Z,99.4
2015-12-02T07:53:35.298Z,99.2
2015-12-02T07:54:35.036Z,99.3
2015-12-02T07:55:34.975Z,99.5
2015-12-02T07:56:34.913Z,99.5
2015-12-02T07:57:34.853Z,99.5
2015-12-02T07:58:34.808Z,99.4
2015-12-02T07:59:34.747Z,99.6
2015-12-02T08:00:34.683Z,99.2
2015-12-02T08:01:34.606Z,99.1
2015-12-02T08:02:34.560Z,99.3
2015-12-02T08:03:34.484Z,99
2015-12-02T08:04:34.422Z,99.2
2015-12-02T08:05:34.350Z,98.9
2015-12-02T08:06:34.299Z,98.3
2015-12-02T08:07:34.233Z,98.6
2015-12-02T08:08:34.168Z,98.6
2015-12-02T08:09:34.121Z,98.7
2015-12-02T08:10:34.072Z,98.4
2015-12-02T08:11:34.011Z,97.9
2015-12-02T08:12:33.948Z,98.2
2015-12-02T08:13:33.902Z,98
2015-12-02T08:14:33.825Z,97.9
2015-12-02T08:15:33.780Z,97.7
2015-12-02T08:16:33.720Z,97.5
2015-12-02T08:17:33.657Z,97.6
2015-12-02T08:18:33.612Z,97.5
2015-12-02T08:19:32.817Z,97.2
2015-12-02T08:20:33.509Z,97.5
2015-12-02T08:21:33.465Z,97.5
2015-12-02T08:22:33.406Z,97.5
2015-12-02T08:23:33.343Z,97.4
2015-12-02T08:24:33.298Z,97.5
2015-12-02T08:25:33.239Z,97.4
2015-12-02T08:26:33.179Z,97.2
2015-12-02T08:27:33.137Z,97.3
2015-12-02T08:28:33.094Z,96.9
2015-12-02T08:29:33.034Z,97
2015-12-02T08:30:32.973Z,96.9
2015-12-02T08:31:32.911Z,97
2015-12-02T08:32:32.867Z,97.3
2015-12-02T08:33:32.808Z,97
2015-12-02T08:34:32.763Z,97.3
2015-12-02T08:35:32.705Z,97.2
2015-12-02T08:36:32.661Z,97.4
2015-12-02T08:37:32.602Z,97.3
2015-12-02T08:38:32.558Z,97.5
2015-12-02T08:39:32.498Z,97.4
2015-12-02T08:40:32.436Z,97.6
2015-12-02T08:41:32.392Z,97.3
2015-12-02T08:42:32.348Z,97.4
2015-12-02T08:43:32.289Z,97.3
2015-12-02T08:44:32.246Z,97.2
2015-12-02T08:45:32.186Z,97.4
2015-12-02T08:46:32.141Z,97.3
2015-12-02T08:47:32.082Z,96.7
2015-12-02T08:48:32.051Z,96.7
2015-12-02T08:49:31.975Z,96.8
2015-12-02T08:50:31.915Z,96.4
2015-12-02T08:51:31.890Z,96.5
2015-12-02T08:52:31.815Z,96.7
2015-12-02T08:53:31.755Z,96.8
2015-12-02T08:54:31.710Z,96.7
2015-12-02T08:55:31.648Z,96.6
2015-12-02T08:56:31.587Z,96.9
2015-12-02T08:57:31.543Z,96.9
2015-12-02T08:58:31.486Z,96
2015-12-02T08:59:31.296Z,96.2
2015-12-02T09:00:31.381Z,96.2
2015-12-02T09:01:31.321Z,96.1
2015-12-02T09:02:31.274Z,96.2
2015-12-02T09:03:31.214Z,96.1
2015-12-02T09:04:31.155Z,96.3
2015-12-02T09:05:30.378Z,96.1
2015-12-02T09:06:31.053Z,96.2
2015-12-02T09:07:31.009Z,96.1
2015-12-02T09:08:30.949Z,96.1
2015-12-02T09:09:30.887Z,96.3
2015-12-02T09:10:30.843Z,96.5
2015-12-02T09:11:30.783Z,95.8
2015-12-02T09:12:30.723Z,96.3
2015-12-02T09:13:30.681Z,96.3
2015-12-02T09:14:30.636Z,96.5
2015-12-02T09:15:30.577Z,96.5
2015-12-02T09:16:30.533Z,96.5
2015-12-02T09:17:30.470Z,96.3
2015-12-02T09:18:30.427Z,96.7
2015-12-02T09:19:30.366Z,96.7
2015-12-02T09:20:30.308Z,96.6
2015-12-02T09:21:30.264Z,96.7
2015-12-02T09:22:30.203Z,96.7
2015-12-02T09:23:30.160Z,97.1
2015-12-02T09:24:30.115Z,96.9
2015-12-02T09:25:30.056Z,96.8
2015-12-02T09:26:29.996Z,97.1
2015-12-02T09:27:29.953Z,96.8
2015-12-02T09:28:29.893Z,96.6
2015-12-02T09:29:29.849Z,96.4
2015-12-02T09:30:29.790Z,96.8
2015-12-02T09:31:29.746Z,96.4
2015-12-02T09:32:29.683Z,96.5
2015-12-02T09:33:29.623Z,96.5
2015-12-02T09:34:29.579Z,96.7
2015-12-02T09:35:29.553Z,96.3
2015-12-02T09:36:29.461Z,96.3
2015-12-02T09:37:29.417Z,95.4
2015-12-02T09:38:29.358Z,95.6
2015-12-02T09:39:29.295Z,95.8
2015-12-02T09:40:29.251Z,95.4
2015-12-02T09:41:29.206Z,95.3
2015-12-02T09:42:29.147Z,95.3
2015-12-02T09:43:29.087Z,94.6
2015-12-02T09:44:29.044Z,94.7
2015-12-02T09:45:29.000Z,94.8
2015-12-02T09:46:28.939Z,93.6
2015-12-02T09:47:28.881Z,94.3
2015-12-02T09:48:28.820Z,94.3
2015-12-02T09:49:28.777Z,94.6
2015-12-02T09:50:28.749Z,94.5
2015-12-02T09:51:28.674Z,93.8
2015-12-02T09:52:28.630Z,92.8
2015-12-02T09:53:28.567Z,92.5
2015-12-02T09:54:28.524Z,93
2015-12-02T09:55:28.463Z,93.8
2015-12-02T09:56:28.406Z,92.9
2015-12-02T09:57:28.361Z,92.7
2015-12-02T09:58:28.301Z,92.3
2015-12-02T09:59:28.256Z,92.2
2015-12-02T10:00:28.197Z,92.8
2015-12-02T10:01:28.137Z,92.2
2015-12-02T10:02:28.093Z,93.1
2015-12-02T10:03:28.050Z,93.2
2015-12-02T10:04:27.989Z,92.3
2015-12-02T10:05:27.945Z,93.1
2015-12-02T10:06:27.886Z,92.9
2015-12-02T10:07:27.842Z,92.5
2015-12-02T10:08:27.781Z,92.5
2015-12-02T10:09:27.737Z,91.8
2015-12-02T10:10:27.677Z,91.8
2015-12-02T10:11:27.633Z,91.2
2015-12-02T10:12:27.574Z,91.6
2015-12-02T10:13:27.544Z,90.4
2015-12-02T10:14:27.455Z,91.3
2015-12-02T10:15:27.410Z,90.9
2015-12-02T10:16:27.350Z,90.8
2015-12-02T10:17:27.306Z,89.9
2015-12-02T10:18:27.246Z,90.2
2015-12-02T10:19:27.199Z,89.6
2015-12-02T10:20:27.139Z,90.6
2015-12-02T10:21:27.099Z,89.5
2015-12-02T10:22:27.038Z,88.9
2015-12-02T10:23:26.979Z,89.2
2015-12-02T10:24:26.935Z,89.2
2015-12-02T10:25:26.875Z,88.5
2015-12-02T10:26:26.813Z,88.7
2015-12-02T10:27:26.768Z,88
2015-12-02T10:28:26.708Z,88.2
2015-12-02T10:29:26.664Z,88.8
2015-12-02T10:30:26.604Z,88.8
2015-12-02T10:31:26.560Z,88.7
2015-12-02T10:32:26.501Z,89
2015-12-02T10:33:26.441Z,88.7
2015-12-02T10:34:26.459Z,88.9
2015-12-02T10:35:26.337Z,88.6
2015-12-02T10:36:26.293Z,88.8
2015-12-02T10:37:26.248Z,88.3
2015-12-02T10:38:26.188Z,88.6
2015-12-02T10:39:26.144Z,89.1
2015-12-02T10:40:26.069Z,89.3
2015-12-02T10:41:26.057Z,89.6
2015-12-02T10:42:25.981Z,89.3
2015-12-02T10:43:25.921Z,89.6
2015-12-02T10:44:25.877Z,88.3
2015-12-02T10:45:25.817Z,88.7
2015-12-02T10:46:25.757Z,88.4
2015-12-02T10:47:25.713Z,88.3
2015-12-02T10:48:25.653Z,89.2
2015-12-02T10:49:25.611Z,89.4
2015-12-02T10:50:25.567Z,89.1
2015-12-02T10:51:25.491Z,89.2
2015-12-02T10:52:25.447Z,89.1
2015-12-02T10:53:25.416Z,88.5
2015-12-02T10:54:25.340Z,89.5
2015-12-02T10:55:25.280Z,89.5
2015-12-02T10:56:25.239Z,89.3
2015-12-02T10:57:25.196Z,89.1
2015-12-02T10:58:25.135Z,89.3
2015-12-02T10:59:25.090Z,89.3
2015-12-02T11:00:25.028Z,88.4
2015-12-02T11:01:24.985Z,88.4
2015-12-02T11:02:24.924Z,87.6
2015-12-02T11:03:24.865Z,87.8
2015-12-02T11:04:24.823Z,87.8
2015-12-02T11:05:24.779Z,86.7
2015-12-02T11:06:24.734Z,86.6
2015-12-02T11:07:24.656Z,86.5
2015-12-02T11:08:24.597Z,86.1
2015-12-02T11:09:24.553Z,85.7
2015-12-02T11:10:24.493Z,86.4
2015-12-02T11:11:24.439Z,87.2
2015-12-02T11:12:24.380Z,87.5
2015-12-02T11:13:24.336Z,87.6
2015-12-02T11:14:24.291Z,87.7
2015-12-02T11:15:24.229Z,87.2
2015-12-02T11:16:24.185Z,87.9
2015-12-02T11:17:24.126Z,87.8
2015-12-02T11:18:24.066Z,88.5
2015-12-02T11:19:24.024Z,88.6
2015-12-02T11:20:23.980Z,88.3
2015-12-02T11:21:23.921Z,87.7
2015-12-02T11:22:23.876Z,88.1
2015-12-02T11:23:23.798Z,88
2015-12-02T11:24:23.754Z,88.7
2015-12-02T11:25:23.710Z,89.2
2015-12-02T11:26:23.651Z,88.6
2015-12-02T11:27:23.607Z,88.9
2015-12-02T11:28:23.392Z,89.4
2015-12-02T11:29:23.504Z,89
2015-12-02T11:30:23.445Z,89.1
2015-12-02T11:31:23.400Z,89.5
2015-12-02T11:32:23.337Z,89
2015-12-02T11:33:23.294Z,89.6
2015-12-02T11:34:23.250Z,89.6
2015-12-02T11:35:23.190Z,89.5
2015-12-02T11:36:23.133Z,89.7
2015-12-02T11:37:23.089Z,89.3
2015-12-02T11:38:23.028Z,89.9
2015-12-02T11:39:22.984Z,90.2
2015-12-02T11:40:22.925Z,90.8
2015-12-02T11:41:22.878Z,90.7
2015-12-02T11:42:22.818Z,91
2015-12-02T11:43:22.821Z,91
2015-12-02T11:44:22.714Z,90.6
2015-12-02T11:45:22.656Z,90.9
2015-12-02T11:46:22.612Z,90.8
2015-12-02T11:47:22.552Z,91.3
2015-12-02T11:48:22.508Z,91.1
2015-12-02T11:49:22.449Z,91.4
2015-12-02T11:50:22.405Z,91.8
2015-12-02T11:51:22.358Z,91.9
2015-12-02T11:52:22.298Z,92.6
2015-12-02T11:53:22.254Z,92.5
2015-12-02T11:54:22.196Z,92.6
2015-12-02T11:55:22.137Z,92.6
2015-12-02T11:56:22.093Z,92.8
2015-12-02T11:57:22.048Z,92.9
2015-12-02T11:58:21.989Z,93
2015-12-02T11:59:21.960Z,92.6
2015-12-02T12:00:21.882Z,93
2015-12-02T12:01:21.837Z,92.8
2015-12-02T12:02:21.778Z,93
2015-12-02T12:03:21.718Z,93.4
2015-12-02T12:04:21.674Z,93.2
2015-12-02T12:05:21.615Z,93.1
2015-12-02T12:06:21.571Z,93.1
2015-12-02T12:07:21.526Z,93.1
2015-12-02T12:08:21.467Z,93
2015-12-02T12:09:21.427Z,92.8
2015-12-02T12:10:21.352Z,93
2015-12-02T12:11:21.307Z,92.8
2015-12-02T12:12:21.263Z,93.1
2015-12-02T12:13:21.204Z,93.2
2015-12-02T12:14:21.158Z,93
2015-12-02T12:15:21.101Z,92.7
2015-12-02T12:16:21.040Z,92.4
2015-12-02T12:17:20.997Z,93.1
2015-12-02T12:18:20.968Z,92.8
2015-12-02T12:19:20.890Z,92.8
2015-12-02T12:20:20.831Z,92.7
2015-12-02T12:21:20.786Z,92.5
2015-12-02T12:22:20.744Z,92.6
2015-12-02T12:23:20.669Z,92.9
2015-12-02T12:24:20.624Z,92.8
2015-12-02T12:25:20.564Z,91.8
2015-12-02T12:26:20.521Z,92
2015-12-02T12:27:20.461Z,91.7
2015-12-02T12:28:20.416Z,92.2
2015-12-02T12:29:20.357Z,92.1
2015-12-02T12:30:20.294Z,91.6
2015-12-02T12:31:20.250Z,91
2015-12-02T12:32:20.205Z,91.2
2015-12-02T12:33:20.146Z,92
2015-12-02T12:34:20.105Z,92
2015-12-02T12:35:20.045Z,90.7
2015-12-02T12:36:20.001Z,91.2
2015-12-02T12:37:19.957Z,91.3
2015-12-02T12:38:19.879Z,91.3
2015-12-02T12:39:19.835Z,91.6
2015-12-02T12:40:19.790Z,90.6
2015-12-02T12:41:19.730Z,91.1
2015-12-02T12:42:19.670Z,91
2015-12-02T12:43:19.626Z,91
2015-12-02T12:44:19.582Z,91.2
2015-12-02T12:45:19.523Z,91.4
2015-12-02T12:46:19.463Z,90.8
2015-12-02T12:47:19.418Z,91
2015-12-02T12:48:19.359Z,90.9
2015-12-02T12:49:19.299Z,91.5
2015-12-02T12:50:19.254Z,91.7
2015-12-02T12:51:18.461Z,91.9
2015-12-02T12:52:19.151Z,91.8
2015-12-02T12:53:19.092Z,92.1
2015-12-02T12:54:19.156Z,91.2
2015-12-02T12:55:19.002Z,91.1
2015-12-02T12:56:18.942Z,91.1
2015-12-02T12:57:18.899Z,91.3
2015-12-02T12:58:18.841Z,91.5
2015-12-02T12:59:18.828Z,91.6
2015-12-02T13:00:18.822Z,91.6
2015-12-02T13:01:18.681Z,91.5
2015-12-02T13:02:18.636Z,91.9
2015-12-02T13:03:18.577Z,91.8
2015-12-02T13:04:18.519Z,92.2
2015-12-02T13:05:18.491Z,92
2015-12-02T13:06:18.415Z,91.9
2015-12-02T13:07:18.357Z,92.3
2015-12-02T13:08:18.313Z,92.3
2015-12-02T13:09:18.269Z,92.3
2015-12-02T13:10:18.211Z,92.6
2015-12-02T13:11:18.168Z,92.7
2015-12-02T13:12:18.108Z,92.8
2015-12-02T13:13:18.049Z,92.6
2015-12-02T13:14:18.020Z,92.2
2015-12-02T13:15:17.957Z,92.2
2015-12-02T13:16:17.898Z,91.9
2015-12-02T13:17:17.854Z,92
2015-12-02T13:18:17.794Z,92.2
2015-12-02T13:19:17.002Z,92.2